createdAt,value
2023-03-21T00:01:51.522Z,34.02
2023-03-21T00:04:18.212Z,33.89
2023-03-21T00:06:44.824Z,34.08
2023-03-21T00:09:12.304Z,34.09
2023-03-21T00:11:38.812Z,33.77
2023-03-21T00:14:05.853Z,34.00
2023-03-21T00:16:36.894Z,33.74
2023-03-21T00:22:05.459Z,33.87
2023-03-21T00:24:18.914Z,33.67
2023-03-21T00:26:46.172Z,33.70
2023-03-21T00:29:13.014Z,33.83
2023-03-21T00:31:39.689Z,33.74
2023-03-21T00:34:06.544Z,33.73
2023-03-21T00:36:33.225Z,33.65
2023-03-21T00:39:00.858Z,33.61
2023-03-21T00:41:41.607Z,33.58
2023-03-21T00:44:11.643Z,33.51
2023-03-21T00:46:57.399Z,33.78
2023-03-21T00:49:24.973Z,33.79
2023-03-21T00:51:52.013Z,33.88
2023-03-21T00:54:18.842Z,33.93
2023-03-21T00:56:45.408Z,33.59
2023-03-21T00:59:11.995Z,33.48
2023-03-21T01:01:38.630Z,33.92
2023-03-21T01:04:10.824Z,33.81
2023-03-21T01:06:40.891Z,33.77
2023-03-21T01:09:17.204Z,33.85
2023-03-21T01:11:45.155Z,33.62
2023-03-21T01:14:22.999Z,33.80
2023-03-21T01:16:53.734Z,33.57
2023-03-21T01:19:29.138Z,33.77
2023-03-21T01:21:58.252Z,33.52
2023-03-21T01:24:25.437Z,33.85
2023-03-21T01:26:52.030Z,33.63
2023-03-21T01:29:18.612Z,33.62
2023-03-21T01:31:45.475Z,33.56
2023-03-21T01:34:12.468Z,33.72
2023-03-21T01:36:39.520Z,33.61
2023-03-21T01:39:09.989Z,33.77
2023-03-21T01:41:43.434Z,33.87
2023-03-21T01:44:22.456Z,34.12
2023-03-21T01:47:11.479Z,34.31
2023-03-21T01:50:03.723Z,34.32
2023-03-21T01:52:46.672Z,34.06
2023-03-21T01:55:18.161Z,34.46
2023-03-21T01:58:05.876Z,34.41
2023-03-21T02:00:52.343Z,34.31
2023-03-21T02:03:35.802Z,34.07
2023-03-21T02:07:04.296Z,34.19
2023-03-21T02:09:49.118Z,34.16
2023-03-21T02:12:19.905Z,34.31
2023-03-21T02:14:49.218Z,34.11
2023-03-21T02:17:43.136Z,34.21
2023-03-21T02:20:40.813Z,34.12
2023-03-21T02:23:27.765Z,34.21
2023-03-21T02:26:41.174Z,34.15
2023-03-21T02:29:46.153Z,34.01
2023-03-21T02:32:36.976Z,34.03
2023-03-21T02:35:37.123Z,34.00
2023-03-21T02:38:18.386Z,34.04
2023-03-21T02:41:19.088Z,34.32
2023-03-21T02:43:54.145Z,34.33
2023-03-21T02:46:43.828Z,34.36
2023-03-21T02:49:34.573Z,34.53
2023-03-21T02:52:14.557Z,34.71
2023-03-21T02:54:48.985Z,35.09
2023-03-21T02:57:21.990Z,35.51
2023-03-21T02:59:55.718Z,35.88
2023-03-21T03:02:32.126Z,35.96
2023-03-21T03:05:00.629Z,36.12
2023-03-21T03:08:09.607Z,36.25
2023-03-21T03:10:54.531Z,36.41
2023-03-21T03:13:26.838Z,36.77
2023-03-21T03:16:36.746Z,36.87
2023-03-21T03:19:08.637Z,36.60
2023-03-21T03:21:42.189Z,36.65
2023-03-21T03:24:20.110Z,36.68
2023-03-21T03:26:55.899Z,36.53
2023-03-21T03:29:27.058Z,36.23
2023-03-21T03:32:01.818Z,36.26
2023-03-21T03:34:39.493Z,36.19
2023-03-21T03:37:10.870Z,36.06
2023-03-21T03:39:47.224Z,35.72
2023-03-21T03:42:28.101Z,35.51
2023-03-21T03:45:06.689Z,35.68
2023-03-21T03:47:41.942Z,35.53
2023-03-21T03:50:41.427Z,35.46
2023-03-21T03:53:36.997Z,35.11
2023-03-21T03:56:07.010Z,35.19
2023-03-21T03:58:44.977Z,34.86
2023-03-21T04:01:14.633Z,34.80
2023-03-21T04:03:50.611Z,34.80
2023-03-21T04:06:22.058Z,35.02
2023-03-21T04:08:50.997Z,34.83
2023-03-21T04:11:20.390Z,34.67
2023-03-21T04:13:51.965Z,34.48
2023-03-21T04:16:23.484Z,34.56
2023-03-21T04:18:52.411Z,34.42
2023-03-21T04:21:19.699Z,34.49
2023-03-21T04:23:46.271Z,34.30
2023-03-21T04:26:12.898Z,34.52
2023-03-21T04:28:47.397Z,34.60
2023-03-21T04:31:35.906Z,34.25
2023-03-21T04:34:09.817Z,34.59
2023-03-21T04:36:39.113Z,34.45
2023-03-21T04:39:12.496Z,34.42
2023-03-21T04:41:42.004Z,34.12
2023-03-21T04:44:09.526Z,34.05
2023-03-21T04:46:36.880Z,34.39
2023-03-21T04:49:04.867Z,34.38
2023-03-21T04:51:31.409Z,34.27
2023-03-21T04:53:58.161Z,34.00
2023-03-21T04:56:32.677Z,34.12
2023-03-21T04:59:07.901Z,33.90
2023-03-21T05:01:34.604Z,34.32
2023-03-21T05:04:02.474Z,34.08
2023-03-21T05:06:32.029Z,34.23
2023-03-21T05:09:00.204Z,33.95
2023-03-21T05:11:30.770Z,33.97
2023-03-21T05:13:59.222Z,34.22
2023-03-21T05:16:30.390Z,34.52
2023-03-21T05:19:04.994Z,34.87
2023-03-21T05:21:42.048Z,35.28
2023-03-21T05:24:20.040Z,35.62
2023-03-21T05:26:50.928Z,35.83
2023-03-21T05:29:20.030Z,36.95
2023-03-21T05:31:57.152Z,37.65
2023-03-21T05:34:25.422Z,38.25
2023-03-21T05:36:51.998Z,38.22
2023-03-21T05:39:19.143Z,38.12
2023-03-21T05:41:57.323Z,37.92
2023-03-21T05:44:24.947Z,37.91
2023-03-21T05:46:52.056Z,37.72
2023-03-21T05:49:23.044Z,37.25
2023-03-21T05:51:54.100Z,37.46
2023-03-21T05:54:20.794Z,36.86
2023-03-21T05:56:49.089Z,36.82
2023-03-21T05:59:25.734Z,36.85
2023-03-21T06:01:57.286Z,36.65
2023-03-21T06:04:24.070Z,36.63
2023-03-21T06:06:52.134Z,36.43
2023-03-21T06:09:19.992Z,36.56
2023-03-21T06:11:55.456Z,36.40
2023-03-21T06:14:29.948Z,36.05
2023-03-21T06:17:17.376Z,36.91
2023-03-21T06:19:50.682Z,38.00
2023-03-21T06:22:43.453Z,38.66
2023-03-21T06:25:11.164Z,38.70
2023-03-21T06:27:38.062Z,38.63
2023-03-21T06:30:07.363Z,38.71
2023-03-21T06:32:40.568Z,38.47
2023-03-21T06:35:11.604Z,38.27
2023-03-21T06:37:38.524Z,37.90
2023-03-21T06:40:07.742Z,37.87
2023-03-21T06:42:34.530Z,38.28
2023-03-21T06:45:08.447Z,38.22
2023-03-21T06:47:35.199Z,38.43
2023-03-21T06:50:06.987Z,38.90
2023-03-21T06:52:39.707Z,39.22
2023-03-21T06:55:07.011Z,39.06
2023-03-21T06:57:34.764Z,38.79
2023-03-21T07:00:02.121Z,38.42
2023-03-21T07:02:29.126Z,38.44
2023-03-21T07:05:13.001Z,38.00
2023-03-21T07:07:40.636Z,37.96
2023-03-21T07:10:08.722Z,37.52
2023-03-21T07:12:44.412Z,37.32
2023-03-21T07:15:19.420Z,37.13
2023-03-21T07:17:46.572Z,36.98
2023-03-21T07:20:14.052Z,36.69
2023-03-21T07:22:41.348Z,36.59
2023-03-21T07:25:08.866Z,36.36
2023-03-21T07:27:41.211Z,36.28
2023-03-21T07:30:10.408Z,36.54
2023-03-21T07:32:37.909Z,36.67
2023-03-21T07:35:10.888Z,36.93
2023-03-21T07:37:38.235Z,36.49
2023-03-21T07:40:10.147Z,36.55
2023-03-21T07:42:39.226Z,36.59
2023-03-21T07:45:07.738Z,36.88
2023-03-21T07:47:35.391Z,36.70
2023-03-21T07:50:04.521Z,36.89
2023-03-21T07:52:32.238Z,36.73
2023-03-21T07:54:59.048Z,36.71
2023-03-21T07:57:26.107Z,36.92
2023-03-21T07:59:52.758Z,36.96
2023-03-21T08:02:19.427Z,36.72
2023-03-21T08:04:46.705Z,36.90
2023-03-21T08:07:13.731Z,37.59
2023-03-21T08:09:40.443Z,37.43
2023-03-21T08:12:08.520Z,37.55
2023-03-21T08:14:36.640Z,37.40
2023-03-21T08:17:07.197Z,37.35
2023-03-21T08:19:34.263Z,37.04
2023-03-21T08:22:01.253Z,37.01
2023-03-21T08:24:31.913Z,37.19
2023-03-21T08:26:58.516Z,37.14
2023-03-21T08:29:25.131Z,36.96
2023-03-21T08:31:51.967Z,37.11
2023-03-21T08:34:19.494Z,37.01
2023-03-21T08:36:47.098Z,36.96
2023-03-21T08:39:13.917Z,36.96
2023-03-21T08:41:40.582Z,36.76
2023-03-21T08:44:07.172Z,36.70
2023-03-21T08:46:33.834Z,36.46
2023-03-21T08:49:00.596Z,36.12
2023-03-21T08:51:27.644Z,36.23
2023-03-21T08:53:54.284Z,36.30
2023-03-21T08:56:20.992Z,35.78
2023-03-21T08:58:47.532Z,35.92
2023-03-21T09:01:15.736Z,35.78
2023-03-21T09:03:43.523Z,35.87
2023-03-21T09:06:13.820Z,35.53
2023-03-21T09:08:43.239Z,35.20
2023-03-21T09:11:10.313Z,35.49
2023-03-21T09:13:39.694Z,35.34
2023-03-21T09:16:06.747Z,35.15
2023-03-21T09:18:45.328Z,35.21
2023-03-21T09:21:14.724Z,35.03
2023-03-21T09:23:42.397Z,35.03
2023-03-21T09:26:09.789Z,34.90
2023-03-21T09:28:38.929Z,34.87
2023-03-21T09:31:06.534Z,34.84
2023-03-21T09:33:35.321Z,34.86
2023-03-21T09:36:02.077Z,34.73
2023-03-21T09:38:30.508Z,34.82
2023-03-21T09:41:18.719Z,34.74
2023-03-21T09:44:03.594Z,34.81
2023-03-21T09:46:45.659Z,34.87
2023-03-21T09:49:35.338Z,34.56
2023-03-21T09:52:12.413Z,34.47
2023-03-21T09:54:44.688Z,34.46
2023-03-21T09:57:36.480Z,34.65
2023-03-21T10:00:14.389Z,34.58
2023-03-21T10:02:49.546Z,34.67
2023-03-21T10:05:28.234Z,34.24
2023-03-21T10:07:57.918Z,34.37
2023-03-21T10:10:32.327Z,34.37
2023-03-21T10:12:59.859Z,34.28
2023-03-21T10:15:27.547Z,34.43
2023-03-21T10:18:01.464Z,34.31
2023-03-21T10:20:33.931Z,34.11
2023-03-21T10:23:05.385Z,34.09
2023-03-21T10:25:42.585Z,34.13
2023-03-21T10:28:16.903Z,34.01
2023-03-21T10:30:48.973Z,33.89
2023-03-21T10:33:20.614Z,33.77
2023-03-21T10:35:57.048Z,34.08
2023-03-21T10:38:26.659Z,33.97
2023-03-21T10:40:53.949Z,33.76
2023-03-21T10:43:26.183Z,33.73
2023-03-21T10:45:57.697Z,33.92
2023-03-21T10:48:24.898Z,33.58
2023-03-21T10:50:57.897Z,33.63
2023-03-21T10:53:35.215Z,33.46
2023-03-21T10:56:07.186Z,33.48
2023-03-21T10:58:41.125Z,33.48
2023-03-21T11:01:14.784Z,33.27
2023-03-21T11:03:46.877Z,33.29
2023-03-21T11:06:40.190Z,33.65
2023-03-21T11:09:17.786Z,33.56
2023-03-21T11:11:54.506Z,33.48
2023-03-21T11:14:27.906Z,33.19
2023-03-21T11:16:54.589Z,33.26
2023-03-21T11:19:36.068Z,33.13
2023-03-21T11:22:08.008Z,33.18
2023-03-21T11:24:36.140Z,33.29
2023-03-21T11:27:07.641Z,33.23
2023-03-21T11:29:38.908Z,33.42
2023-03-21T11:32:16.965Z,33.36
2023-03-21T11:35:05.911Z,33.54
2023-03-21T11:37:37.634Z,33.36
2023-03-21T11:40:18.081Z,33.48
2023-03-21T11:42:48.130Z,33.12
2023-03-21T11:45:16.332Z,33.10
2023-03-21T11:47:43.575Z,33.41
2023-03-21T11:50:18.263Z,33.13
2023-03-21T11:52:56.932Z,33.23
2023-03-21T11:55:34.917Z,33.16
2023-03-21T11:58:22.442Z,33.15
2023-03-21T12:01:03.894Z,33.18
2023-03-21T12:03:57.426Z,33.17
2023-03-21T12:06:48.328Z,33.15
2023-03-21T12:09:34.516Z,33.26
2023-03-21T12:12:10.431Z,32.90
2023-03-21T12:14:59.014Z,32.98
2023-03-21T12:17:50.559Z,32.89
2023-03-21T12:20:46.644Z,32.85
2023-03-21T12:23:33.402Z,32.54
2023-03-21T12:26:03.002Z,32.68
2023-03-21T12:28:56.490Z,32.97
2023-03-21T12:31:42.275Z,32.86
2023-03-21T12:34:25.013Z,33.03
2023-03-21T12:37:03.551Z,32.95
2023-03-21T12:39:36.870Z,32.88
2023-03-21T12:42:24.637Z,33.03
2023-03-21T12:45:00.643Z,32.87
2023-03-21T12:47:30.870Z,32.81
2023-03-21T12:50:03.555Z,32.90
2023-03-21T12:55:01.713Z,33.03
2023-03-21T12:57:56.489Z,32.56
2023-03-21T13:00:36.098Z,32.73
2023-03-21T13:03:19.557Z,32.84
2023-03-21T13:06:07.139Z,32.64
2023-03-21T13:08:38.644Z,32.91
2023-03-21T13:11:07.523Z,32.72
2023-03-21T13:13:40.024Z,32.73
2023-03-21T13:16:06.999Z,32.63
2023-03-21T13:18:41.622Z,32.75
2023-03-21T13:21:19.383Z,32.68
2023-03-21T13:24:03.393Z,32.98
2023-03-21T13:26:38.151Z,32.83
2023-03-21T13:29:25.635Z,32.85
2023-03-21T13:31:57.400Z,32.91
2023-03-21T13:34:25.514Z,32.67
2023-03-21T13:36:52.874Z,32.79
2023-03-21T13:39:25.404Z,32.58
2023-03-21T13:41:53.206Z,32.62
2023-03-21T13:45:00.710Z,32.72
2023-03-21T13:47:36.327Z,32.86
2023-03-21T13:50:18.208Z,32.62
2023-03-21T13:53:03.632Z,32.79
2023-03-21T13:55:41.631Z,32.90
2023-03-21T13:58:32.826Z,32.61
2023-03-21T14:01:17.698Z,32.63
2023-03-21T14:03:47.095Z,32.76
2023-03-21T14:06:15.551Z,32.84
2023-03-21T14:08:46.263Z,32.74
2023-03-21T14:11:18.476Z,32.76
2023-03-21T14:13:51.381Z,32.83
2023-03-21T14:16:19.501Z,32.91
2023-03-21T14:18:54.524Z,32.56
2023-03-21T14:21:34.809Z,32.85
2023-03-21T14:24:13.444Z,32.90
2023-03-21T14:27:01.856Z,32.96
2023-03-21T14:29:34.342Z,32.84
2023-03-21T14:32:02.708Z,32.74
2023-03-21T14:34:33.505Z,32.61
2023-03-21T14:37:01.065Z,32.53
2023-03-21T14:39:33.140Z,32.69
2023-03-21T14:42:08.334Z,32.59
2023-03-21T14:44:53.523Z,32.67
2023-03-21T14:47:27.760Z,32.96
2023-03-21T14:49:56.339Z,32.87
2023-03-21T14:52:34.580Z,32.97
2023-03-21T14:55:05.811Z,32.76
2023-03-21T14:57:33.389Z,33.00
2023-03-21T15:00:10.605Z,32.63
2023-03-21T15:02:39.992Z,32.73
2023-03-21T15:05:18.677Z,32.75
2023-03-21T15:07:54.163Z,32.94
2023-03-21T15:10:21.196Z,32.73
2023-03-21T15:12:52.301Z,32.73
2023-03-21T15:15:19.778Z,32.72
2023-03-21T15:17:47.309Z,32.97
2023-03-21T15:20:17.484Z,32.72
2023-03-21T15:22:55.340Z,32.89
2023-03-21T15:25:34.840Z,33.04
2023-03-21T15:28:03.622Z,32.86
2023-03-21T15:30:32.975Z,32.72
2023-03-21T15:33:07.808Z,32.99
2023-03-21T15:35:39.946Z,33.15
2023-03-21T15:38:07.405Z,32.82
2023-03-21T15:40:35.233Z,32.74
2023-03-21T15:43:06.498Z,32.72
2023-03-21T15:45:35.312Z,33.05
2023-03-21T15:48:09.115Z,33.13
2023-03-21T15:50:39.913Z,32.89
2023-03-21T15:53:17.149Z,32.86
2023-03-21T15:55:50.128Z,33.04
2023-03-21T15:58:26.339Z,32.93
2023-03-21T16:00:55.733Z,32.96
2023-03-21T16:03:30.313Z,32.91
2023-03-21T16:06:19.863Z,32.95
2023-03-21T16:08:52.446Z,33.21
2023-03-21T16:11:23.395Z,33.28
2023-03-21T16:13:51.562Z,33.25
2023-03-21T16:16:26.349Z,32.93
2023-03-21T16:18:54.825Z,33.42
2023-03-21T16:21:24.322Z,33.44
2023-03-21T16:23:51.919Z,33.37
2023-03-21T16:26:24.766Z,33.51
2023-03-21T16:28:53.031Z,33.43
2023-03-21T16:31:22.770Z,33.57
2023-03-21T16:33:51.173Z,33.70
2023-03-21T16:36:20.941Z,33.40
2023-03-21T16:38:55.507Z,33.39
2023-03-21T16:41:25.375Z,33.47
2023-03-21T16:43:53.232Z,33.74
2023-03-21T16:46:22.209Z,33.55
2023-03-21T16:48:51.697Z,33.64
2023-03-21T16:51:21.651Z,33.94
2023-03-21T16:53:49.305Z,33.73
2023-03-21T16:56:17.754Z,33.91
2023-03-21T16:58:44.560Z,33.86
2023-03-21T17:01:14.642Z,33.89
2023-03-21T17:03:41.572Z,34.03
2023-03-21T17:06:13.626Z,33.86
2023-03-21T17:08:40.579Z,34.18
2023-03-21T17:11:10.700Z,34.12
2023-03-21T17:13:40.226Z,34.09
2023-03-21T17:16:07.267Z,34.10
2023-03-21T17:18:33.808Z,33.95
2023-03-21T17:21:00.685Z,34.22
2023-03-21T17:23:27.249Z,34.32
2023-03-21T17:25:54.775Z,33.86
2023-03-21T17:28:21.360Z,34.24
2023-03-21T17:30:50.318Z,33.99
2023-03-21T17:33:16.980Z,34.21
2023-03-21T17:35:43.718Z,33.94
2023-03-21T17:38:16.723Z,34.46
2023-03-21T17:40:43.455Z,34.03
2023-03-21T17:43:17.235Z,34.38
2023-03-21T17:45:43.959Z,34.47
2023-03-21T17:48:11.112Z,34.41
2023-03-21T17:50:39.268Z,34.43
2023-03-21T17:53:08.657Z,34.41
2023-03-21T17:55:35.761Z,34.44
2023-03-21T17:58:03.628Z,34.37
2023-03-21T18:00:32.665Z,34.14
2023-03-21T18:02:59.208Z,34.42
2023-03-21T18:05:27.310Z,34.06
2023-03-21T18:08:11.900Z,34.20
2023-03-21T18:10:40.895Z,34.60
2023-03-21T18:13:08.002Z,34.37
2023-03-21T18:15:36.006Z,34.44
2023-03-21T18:18:04.629Z,34.19
2023-03-21T18:23:19.143Z,34.23
2023-03-21T18:25:45.994Z,34.13
2023-03-21T18:28:13.138Z,34.14
2023-03-21T18:31:05.269Z,34.44
2023-03-21T18:33:28.512Z,34.30
2023-03-21T18:35:59.312Z,34.21
2023-03-21T18:38:27.774Z,34.34
2023-03-21T18:40:55.775Z,34.47
2023-03-21T18:46:09.502Z,34.71
2023-03-21T18:48:36.615Z,34.45
2023-03-21T18:51:06.370Z,34.34
2023-03-21T18:53:33.036Z,34.66
2023-03-21T18:55:59.621Z,34.35
2023-03-21T18:58:27.801Z,34.77
2023-03-21T19:00:54.715Z,34.53
2023-03-21T19:03:35.256Z,34.62
2023-03-21T19:06:05.844Z,34.88
2023-03-21T19:08:34.751Z,34.92
2023-03-21T19:11:06.038Z,34.87
2023-03-21T19:13:34.054Z,34.83
2023-03-21T19:16:02.553Z,34.89
2023-03-21T19:18:53.094Z,34.85
2023-03-21T19:21:19.264Z,35.06
2023-03-21T19:26:32.787Z,35.06
2023-03-21T19:28:59.434Z,35.33
2023-03-21T19:31:26.770Z,35.07
2023-03-21T19:33:53.375Z,34.92
2023-03-21T19:36:22.863Z,35.08
2023-03-21T19:38:50.386Z,35.29
2023-03-21T19:41:18.234Z,34.96
2023-03-21T19:43:54.248Z,34.98
2023-03-21T19:46:25.307Z,35.29
2023-03-21T19:48:56.267Z,35.37
2023-03-21T19:51:28.732Z,35.32
2023-03-21T19:53:57.733Z,35.13
2023-03-21T19:56:27.059Z,35.08
2023-03-21T19:58:55.527Z,35.34
2023-03-21T20:01:22.958Z,35.23
2023-03-21T20:03:49.725Z,34.97
2023-03-21T20:06:16.730Z,35.38
2023-03-21T20:09:21.441Z,35.84
2023-03-21T20:11:30.350Z,36.04
2023-03-21T20:13:59.920Z,36.61
2023-03-21T20:16:34.248Z,36.65
2023-03-21T20:19:03.662Z,36.70
2023-03-21T20:21:44.427Z,36.71
2023-03-21T20:24:16.482Z,36.84
2023-03-21T20:26:44.977Z,37.22
2023-03-21T20:30:00.200Z,37.25
2023-03-21T20:31:58.238Z,37.81
2023-03-21T20:34:26.115Z,37.94
2023-03-21T20:36:53.452Z,37.38
2023-03-21T20:39:20.206Z,37.42
2023-03-21T20:41:47.514Z,37.53
2023-03-21T20:44:47.984Z,37.19
2023-03-21T20:47:00.808Z,37.22
2023-03-21T20:49:28.497Z,37.43
2023-03-21T20:54:43.461Z,37.46
2023-03-21T20:57:10.094Z,37.35
2023-03-21T20:59:39.965Z,37.25
2023-03-21T21:02:06.672Z,37.48
2023-03-21T21:05:12.255Z,37.11
2023-03-21T21:07:22.067Z,37.21
2023-03-21T21:09:49.954Z,37.17
2023-03-21T21:12:19.435Z,37.43
2023-03-21T21:14:47.802Z,37.09
2023-03-21T21:17:40.346Z,37.09
2023-03-21T21:20:31.019Z,37.50
2023-03-21T21:23:00.241Z,37.22
2023-03-21T21:25:28.939Z,37.38
2023-03-21T21:27:56.067Z,37.59
2023-03-21T21:30:22.788Z,37.42
2023-03-21T21:32:49.744Z,37.38
2023-03-21T21:35:17.947Z,37.58
2023-03-21T21:37:44.835Z,37.25
2023-03-21T21:40:20.375Z,37.31
2023-03-21T21:42:47.662Z,37.21
2023-03-21T21:45:16.093Z,37.47
2023-03-21T21:47:45.142Z,37.45
2023-03-21T21:50:12.110Z,37.19
2023-03-21T21:52:38.777Z,37.14
2023-03-21T21:55:06.444Z,37.32
2023-03-21T21:57:34.413Z,37.21
2023-03-21T22:00:06.731Z,37.24
2023-03-21T22:02:38.580Z,37.49
2023-03-21T22:05:05.586Z,37.30
2023-03-21T22:07:32.307Z,37.43
2023-03-21T22:09:59.580Z,37.29
2023-03-21T22:12:26.398Z,37.29
2023-03-21T22:14:53.051Z,37.12
2023-03-21T22:17:19.683Z,37.08
2023-03-21T22:20:02.626Z,37.23
2023-03-21T22:22:31.877Z,37.29
2023-03-21T22:24:58.440Z,36.92
2023-03-21T22:27:25.350Z,37.25
2023-03-21T22:29:51.916Z,37.22
2023-03-21T22:32:19.671Z,37.06
2023-03-21T22:34:46.444Z,37.33
2023-03-21T22:37:13.198Z,37.26
2023-03-21T22:39:39.826Z,37.06
2023-03-21T22:42:06.480Z,36.92
2023-03-21T22:44:36.899Z,37.32
2023-03-21T22:47:06.206Z,37.26
2023-03-21T22:49:32.992Z,37.23
2023-03-21T22:52:00.843Z,37.37
2023-03-21T22:54:27.608Z,37.33
2023-03-21T22:56:54.301Z,37.22
2023-03-21T22:59:21.161Z,37.25
2023-03-21T23:01:47.948Z,36.94
2023-03-21T23:04:15.554Z,36.92
2023-03-21T23:06:42.800Z,37.10
2023-03-21T23:09:09.764Z,37.25
2023-03-21T23:11:37.741Z,36.88
2023-03-21T23:14:08.093Z,37.21
2023-03-21T23:16:38.162Z,36.90
2023-03-21T23:19:05.142Z,36.97
2023-03-21T23:21:34.437Z,37.00
2023-03-21T23:24:01.191Z,37.24
2023-03-21T23:26:28.135Z,36.94
2023-03-21T23:28:54.811Z,37.26
2023-03-21T23:31:23.993Z,36.86
2023-03-21T23:33:51.185Z,37.06
2023-03-21T23:36:19.155Z,36.91
2023-03-21T23:38:46.089Z,37.01
2023-03-21T23:41:16.227Z,37.17
2023-03-21T23:43:43.678Z,37.24
2023-03-21T23:46:12.683Z,36.94
2023-03-21T23:48:44.018Z,36.89
2023-03-21T23:51:12.152Z,36.96
2023-03-21T23:53:39.294Z,37.13
2023-03-21T23:56:21.043Z,37.20
2023-03-21T23:58:49.963Z,36.92
